Time;durP1;ratioP1;P1;durP2;ratioP2;P2;SDS_P1;SDS_P2;PMS_P1;PMS_P2;Temp;Humidity;BMP_temperature;BMP_pressure;BME280_temperature;BME280_humidity;BME280_pressure;Samples;Min_cycle;Max_cycle;Signal;HPM_P1;HPM_P2
2022/04/16 00:01:46;;;;;;;5.63;2.00;;;;;;;4.73;93.87;101897.14;5131281;57;1134794;-70
2022/04/16 00:06:48;;;;;;;7.00;1.80;;;;;;;4.62;93.56;101904.00;5130068;57;1135011;-71
2022/04/16 00:11:53;;;;;;;4.00;1.83;;;;;;;4.51;93.08;101910.03;5131178;56;1134910;-70
2022/04/16 00:17:00;;;;;;;4.70;1.40;;;;;;;4.51;93.45;101910.88;5131526;57;1134815;-70
2022/04/16 00:22:12;;;;;;;4.53;1.80;;;;;;;4.63;94.18;101914.03;5146118;56;1134913;-70
2022/04/16 00:27:13;;;;;;;2.80;1.40;;;;;;;4.61;93.73;101920.63;5162453;56;1134730;-70
2022/04/16 00:32:21;;;;;;;5.77;1.70;;;;;;;4.54;94.02;101930.45;5166190;56;1134912;-71
2022/04/16 00:37:26;;;;;;;4.07;1.70;;;;;;;4.47;94.34;101924.11;5161301;56;1134790;-71
2022/04/16 00:42:50;;;;;;;2.93;1.10;;;;;;;4.42;94.41;101922.96;5080033;58;1135069;-70
2022/04/16 00:47:50;;;;;;;2.30;1.20;;;;;;;4.45;94.95;101928.08;5114290;57;1134752;-70
2022/04/16 00:52:56;;;;;;;2.60;1.17;;;;;;;4.40;94.48;101924.77;5188302;56;1135090;-70
2022/04/16 00:58:02;;;;;;;3.37;1.30;;;;;;;4.42;94.89;101924.27;5085576;57;1134830;-70
2022/04/16 01:03:08;;;;;;;3.63;1.40;;;;;;;4.38;95.00;101923.95;5156158;57;1134809;-70
2022/04/16 01:08:14;;;;;;;4.00;1.57;;;;;;;4.32;94.94;101944.20;5156071;57;1134796;-71
2022/04/16 01:13:20;;;;;;;3.80;2.03;;;;;;;4.24;94.80;101933.52;5125031;57;1134772;-71
2022/04/16 01:18:25;;;;;;;7.70;1.37;;;;;;;4.14;94.67;101938.59;5156170;57;1134712;-70
2022/04/16 01:23:31;;;;;;;3.23;1.30;;;;;;;4.09;95.31;101953.59;5156232;57;1134783;-70
2022/04/16 01:28:37;;;;;;;2.80;1.23;;;;;;;4.04;95.34;101954.61;5155982;57;1135016;-71
2022/04/16 01:33:42;;;;;;;4.10;1.63;;;;;;;4.00;95.40;101955.59;5156245;57;1134777;-70
2022/04/16 01:38:48;;;;;;;2.03;1.33;;;;;;;3.96;95.62;101959.21;5140595;57;1134826;-70
2022/04/16 01:43:54;;;;;;;3.73;1.27;;;;;;;3.84;95.54;101952.52;5131656;57;1134798;-70
2022/04/16 01:49:01;;;;;;;3.40;1.50;;;;;;;3.83;95.97;101953.42;5169086;57;1133019;-70
2022/04/16 01:54:07;;;;;;;2.07;1.13;;;;;;;3.84;96.00;101954.69;5131463;57;1132816;-71
2022/04/16 01:59:13;;;;;;;5.10;1.40;;;;;;;3.77;96.05;101954.47;5044202;58;1132722;-70
2022/04/16 02:04:18;;;;;;;1.87;1.03;;;;;;;3.67;96.27;101963.88;5044200;58;1132754;-71
2022/04/16 02:09:24;;;;;;;1.37;1.03;;;;;;;3.69;96.44;101969.48;5043962;58;1132734;-70
2022/04/16 02:14:31;;;;;;;3.43;0.93;;;;;;;3.70;96.78;101962.05;5043745;58;1132946;-70
2022/04/16 02:19:38;;;;;;;1.73;1.33;;;;;;;3.73;97.03;101972.89;5043896;58;1132706;-71
2022/04/16 02:24:46;;;;;;;6.35;1.60;;;;;;;3.75;97.20;101976.33;5043829;58;1132742;-70
2022/04/16 02:29:51;;;;;;;3.63;1.20;;;;;;;3.81;97.05;101981.41;5044000;58;1132752;-70
2022/04/16 02:34:57;;;;;;;5.73;1.67;;;;;;;3.77;97.00;101978.02;5044090;58;1132777;-71
2022/04/16 02:40:05;;;;;;;2.53;1.20;;;;;;;3.66;96.96;101989.22;5043838;58;1132812;-70
2022/04/16 02:50:37;;;;;;;4.00;2.07;;;;;;;3.70;97.38;101993.89;4982698;59;1132784;-70
2022/04/16 02:55:46;;;;;;;2.23;1.77;;;;;;;3.63;97.55;102001.06;5131293;57;1130692;-70
2022/04/16 03:00:50;;;;;;;3.37;1.17;;;;;;;3.64;97.88;102004.53;5131342;57;1130739;-70
2022/04/16 03:05:56;;;;;;;1.85;1.00;;;;;;;3.62;98.06;102008.94;4994150;59;1134817;-72
2022/04/16 03:11:08;;;;;;;2.37;1.40;;;;;;;3.57;98.00;102008.19;5131347;57;1134767;-70
2022/04/16 03:21:34;;;;;;;9.38;3.05;;;;;;;3.49;98.18;102021.02;4981467;59;1135079;-70
2022/04/16 03:26:40;;;;;;;3.60;2.70;;;;;;;3.43;98.11;102023.77;5129942;57;1134983;-70
2022/04/16 03:31:45;;;;;;;2.30;1.70;;;;;;;3.51;98.78;102031.45;5129647;57;1135025;-70
2022/04/16 03:36:51;;;;;;;3.20;1.50;;;;;;;3.51;98.72;102037.51;4980937;59;1134953;-70
2022/04/16 03:41:56;;;;;;;3.27;1.80;;;;;;;3.51;98.71;102045.36;5180623;56;1134815;-70
2022/04/16 03:47:02;;;;;;;4.40;1.50;;;;;;;3.56;98.85;102060.09;5207641;56;1134791;-70
2022/04/16 03:52:08;;;;;;;2.13;1.40;;;;;;;3.56;98.85;102060.09;5133716;57;1134704;-69
2022/04/16 04:02:38;;;;;;;6.63;2.40;;;;;;;3.53;98.90;102070.17;5226772;56;1134870;-70
2022/04/16 04:07:44;;;;;;;2.30;1.40;;;;;;;3.50;98.91;102085.97;5236092;56;1134790;-70
2022/04/16 04:12:50;;;;;;;10.53;3.93;;;;;;;3.46;98.95;102089.54;5233679;56;1134852;-69
2022/04/16 04:17:56;;;;;;;12.33;4.70;;;;;;;3.41;98.88;102083.54;5050333;58;1136897;-69
2022/04/16 04:23:06;;;;;;;21.13;5.90;;;;;;;3.51;99.11;102091.13;5207703;56;1136899;-70
2022/04/16 04:28:12;;;;;;;20.73;6.07;;;;;;;3.52;99.08;102103.77;5221943;56;1136956;-70
2022/04/16 04:33:17;;;;;;;9.07;3.60;;;;;;;3.49;99.38;102108.64;5242643;56;1136881;-70
2022/04/16 04:38:23;;;;;;;11.73;4.50;;;;;;;3.45;99.33;102110.91;5238478;56;1134834;-69
2022/04/16 04:43:29;;;;;;;7.37;2.40;;;;;;;3.53;99.77;102120.73;5242695;56;1136912;-70
2022/04/16 04:48:35;;;;;;;4.65;2.83;;;;;;;3.62;99.81;102132.77;5078151;58;1134762;-70
2022/04/16 04:53:41;;;;;;;8.33;3.33;;;;;;;3.71;99.92;102134.29;4994382;59;1135040;-70
2022/04/16 04:58:47;;;;;;;6.67;3.33;;;;;;;3.68;99.76;102145.69;5085813;57;1134845;-70
2022/04/16 05:03:53;;;;;;;8.27;3.40;;;;;;;3.67;100.00;102141.79;5156241;57;1134822;-69
2022/04/16 05:08:59;;;;;;;6.33;3.10;;;;;;;3.68;100.00;102151.36;5156246;57;1136895;-70
2022/04/16 05:14:05;;;;;;;12.25;2.98;;;;;;;3.73;100.00;102157.36;5156066;57;1136986;-70
2022/04/16 05:19:10;;;;;;;3.43;2.73;;;;;;;3.75;100.00;102162.11;5156281;56;1138954;-70
2022/04/16 05:24:16;;;;;;;7.20;3.07;;;;;;;3.82;100.00;102180.69;4994628;59;1136875;-69
2022/04/16 05:29:23;;;;;;;6.90;2.27;;;;;;;3.91;100.00;102179.63;5080007;58;1136935;-71
2022/04/16 05:34:29;;;;;;;4.53;2.17;;;;;;;4.04;100.00;102184.98;5079971;58;1136933;-70
2022/04/16 05:39:37;;;;;;;3.33;1.73;;;;;;;4.28;100.00;102185.68;5078686;58;1136923;-70
2022/04/16 05:44:42;;;;;;;3.53;1.67;;;;;;;4.49;100.00;102187.77;5068207;58;1136877;-69
2022/04/16 05:49:48;;;;;;;6.77;1.97;;;;;;;4.76;100.00;102185.31;5137710;57;1134930;-70
2022/04/16 05:54:55;;;;;;;6.80;2.23;;;;;;;5.07;100.00;102192.75;5216986;56;1136989;-70
2022/04/16 06:00:00;;;;;;;3.10;2.10;;;;;;;5.34;100.00;102198.14;5171357;56;1134875;-70
2022/04/16 06:05:07;;;;;;;13.10;4.23;;;;;;;5.52;100.00;102201.51;5161520;56;1134811;-70
2022/04/16 06:10:13;;;;;;;4.73;2.90;;;;;;;5.69;99.49;102195.75;5161263;56;1139082;-70
2022/04/16 06:15:19;;;;;;;2.43;1.87;;;;;;;5.79;98.74;102203.32;5160430;56;1132727;-70
2022/04/16 06:20:25;;;;;;;4.83;2.27;;;;;;;5.99;98.62;102198.77;5032923;58;1132764;-71
2022/04/16 06:25:31;;;;;;;4.87;1.93;;;;;;;6.18;97.71;102213.49;5150267;57;1132701;-71
2022/04/16 06:30:37;;;;;;;6.37;2.73;;;;;;;6.38;98.02;102215.03;5067622;57;1132729;-70
2022/04/16 06:35:43;;;;;;;4.90;1.57;;;;;;;6.48;94.88;102220.37;5067792;58;1132773;-75
2022/04/16 06:40:48;;;;;;;3.93;2.17;;;;;;;6.62;96.21;102226.02;5212381;56;1132796;-76
2022/04/16 06:45:54;;;;;;;5.73;2.57;;;;;;;6.77;94.67;102205.37;5233444;56;1135024;-79
2022/04/16 06:51:00;;;;;;;2.05;1.25;;;;;;;6.80;93.42;102225.85;5087123;57;1132816;-79
2022/04/16 06:56:06;;;;;;;5.33;2.33;;;;;;;6.79;92.76;102234.65;5242503;56;1132748;-77
2022/04/16 07:01:12;;;;;;;2.02;1.15;;;;;;;6.56;91.95;102242.47;5242413;56;1132720;-76
2022/04/16 07:06:17;;;;;;;9.37;3.40;;;;;;;6.44;91.58;102242.40;5242563;56;1134853;-77
2022/04/16 07:11:23;;;;;;;3.57;1.77;;;;;;;6.32;93.20;102257.26;5242644;56;1132982;-76
2022/04/16 07:16:28;;;;;;;5.47;2.47;;;;;;;6.26;93.55;102258.30;5071834;58;1132806;-75
2022/04/16 07:21:34;;;;;;;4.57;1.73;;;;;;;6.22;93.16;102265.04;5188965;56;1132732;-78
2022/04/16 07:26:40;;;;;;;3.50;1.60;;;;;;;6.25;92.52;102264.50;5237209;56;1132972;-80
2022/04/16 07:31:45;;;;;;;5.37;2.33;;;;;;;6.35;93.71;102262.42;5061308;57;1130738;-78
2022/04/16 07:36:51;;;;;;;5.23;3.40;;;;;;;6.53;91.93;102264.45;5232427;56;1134841;-79
2022/04/16 07:41:57;;;;;;;5.63;1.47;;;;;;;6.35;90.48;102269.85;5227161;56;1134811;-81
2022/04/16 07:47:03;;;;;;;7.63;1.67;;;;;;;6.19;88.63;102269.07;5161952;57;1134843;-77
2022/04/16 07:52:09;;;;;;;5.90;3.05;;;;;;;6.39;91.50;102280.27;5163929;57;1134762;-72
2022/04/16 07:57:15;;;;;;;3.10;2.57;;;;;;;6.63;90.71;102281.64;5240451;56;1135226;-78
2022/04/16 08:02:21;;;;;;;4.60;2.40;;;;;;;6.73;91.68;102285.27;5240245;56;1134766;-77
2022/04/16 08:07:27;;;;;;;2.80;1.97;;;;;;;6.78;92.17;102286.84;5047693;58;1135043;-73
2022/04/16 08:12:32;;;;;;;4.60;1.47;;;;;;;7.32;90.55;102277.95;5207607;56;1135178;-72
2022/04/16 08:17:38;;;;;;;3.33;1.47;;;;;;;7.70;90.12;102287.06;5108052;57;1134879;-78
2022/04/16 08:22:46;;;;;;;4.00;1.97;;;;;;;7.95;86.06;102286.52;5155814;57;1134811;-80
2022/04/16 08:27:54;;;;;;;6.17;1.80;;;;;;;8.12;86.89;102288.51;5155977;57;1134757;-78
2022/04/16 08:33:00;;;;;;;7.60;2.50;;;;;;;8.06;87.18;102300.17;5155898;57;1134906;-76
2022/04/16 08:38:06;;;;;;;1.63;1.33;;;;;;;7.76;84.21;102311.87;5187307;56;1134872;-75
2022/04/16 08:43:12;;;;;;;7.03;2.00;;;;;;;7.57;84.91;102309.05;5161851;57;1134825;-76
2022/04/16 08:48:17;;;;;;;6.93;3.50;;;;;;;7.47;84.79;102303.72;5080276;57;1134820;-75
2022/04/16 08:53:23;;;;;;;5.77;1.37;;;;;;;7.47;85.79;102306.81;5156376;57;1134713;-77
2022/04/16 08:58:32;;;;;;;4.40;2.30;;;;;;;7.90;86.67;102306.94;5156354;57;1134974;-75
2022/04/16 09:03:40;;;;;;;4.60;2.07;;;;;;;8.31;85.49;102305.33;5156306;57;1136869;-77
2022/04/16 09:08:46;;;;;;;2.87;1.50;;;;;;;8.59;82.97;102309.52;5156397;57;1134721;-77
2022/04/16 09:13:54;;;;;;;3.20;1.97;;;;;;;8.37;80.83;102315.67;5190005;56;1134793;-77
2022/04/16 09:18:59;;;;;;;5.10;3.27;;;;;;;8.22;82.23;102322.83;5199679;56;1134877;-75
2022/04/16 09:24:06;;;;;;;2.40;1.60;;;;;;;8.53;84.65;102325.15;5225259;56;1134789;-77
2022/04/16 09:29:16;;;;;;;3.13;1.43;;;;;;;8.71;82.29;102324.38;5203148;56;1134804;-78
2022/04/16 09:34:25;;;;;;;6.13;1.77;;;;;;;8.79;79.08;102322.30;5112361;57;1134794;-77
2022/04/16 09:39:30;;;;;;;2.43;1.70;;;;;;;8.91;80.62;102316.96;5110299;57;1135121;-80
2022/04/16 09:44:36;;;;;;;5.40;2.73;;;;;;;8.82;79.44;102326.59;5115352;57;1134800;-79
2022/04/16 09:49:42;;;;;;;3.43;1.90;;;;;;;8.85;79.47;102322.97;5189734;56;1134789;-78
2022/04/16 09:54:51;;;;;;;4.13;2.37;;;;;;;9.07;79.26;102321.98;5124688;57;1135001;-84
2022/04/16 09:59:59;;;;;;;2.53;1.40;;;;;;;9.24;77.26;102327.87;5119591;57;1134857;-83
2022/04/16 10:05:05;;;;;;;3.57;1.23;;;;;;;9.09;76.99;102333.80;5192378;56;1134865;-78
2022/04/16 10:11:20;;;;;;;3.00;1.80;;;;;;;9.16;79.06;102324.26;5187885;56;1134772;-80
2022/04/16 10:15:33;;;;;;;4.60;1.90;;;;;;;9.26;76.37;102335.73;5169835;56;1134819;-79
2022/04/16 10:20:41;;;;;;;2.63;1.60;;;;;;;9.41;78.35;102325.36;5237407;56;1134730;-79
2022/04/16 10:25:47;;;;;;;3.45;1.57;;;;;;;9.52;77.35;102328.84;5078537;57;1132940;-75
2022/04/16 10:30:55;;;;;;;9.00;1.70;;;;;;;9.76;78.15;102315.00;5242541;56;1134812;-76
2022/04/16 10:36:09;;;;;;;3.47;2.23;;;;;;;10.15;74.70;102325.05;5242522;56;1134818;-75
2022/04/16 10:41:20;;;;;;;1.27;1.17;;;;;;;10.15;73.08;102323.72;5239269;56;1136891;-77
2022/04/16 10:46:40;;;;;;;5.57;1.80;;;;;;;10.17;71.88;102325.83;5137348;57;1136910;-78
2022/04/16 10:51:47;;;;;;;5.13;3.27;;;;;;;10.14;73.26;102320.68;5197492;56;1136911;-76
2022/04/16 10:56:56;;;;;;;3.67;1.42;;;;;;;10.33;72.75;102315.41;5230249;56;1136870;-79
2022/04/16 11:02:02;;;;;;;2.77;1.80;;;;;;;10.55;73.70;102324.02;5200707;56;1136880;-79
2022/04/16 11:07:10;;;;;;;2.33;1.40;;;;;;;10.64;72.31;102310.81;5227285;56;1136874;-76
2022/04/16 11:12:16;;;;;;;3.80;1.80;;;;;;;10.63;73.12;102308.24;5233984;56;1137181;-79
2022/04/16 11:17:22;;;;;;;3.70;3.07;;;;;;;10.52;70.58;102318.03;5242377;56;1137086;-79
2022/04/16 11:22:28;;;;;;;6.87;2.00;;;;;;;10.62;73.36;102319.29;5231516;56;1134796;-77
2022/04/16 11:38:35;;;;;;;3.40;1.42;;;;;;;11.50;66.35;102318.73;5192132;56;1139004;-79
2022/04/16 11:43:55;;;;;;;2.70;1.70;;;;;;;11.23;66.82;102321.03;5192041;56;1138984;-81
2022/04/16 11:49:00;;;;;;;4.13;1.97;;;;;;;11.58;68.21;102311.24;5172753;56;1138951;-75
2022/04/16 11:54:06;;;;;;;1.17;1.10;;;;;;;11.85;66.08;102318.20;5177476;56;1139272;-81
2022/04/16 11:59:16;;;;;;;3.73;1.77;;;;;;;12.08;65.61;102315.61;5155863;57;1138990;-81
2022/04/16 12:04:21;;;;;;;2.37;2.17;;;;;;;11.98;63.51;102320.57;4992807;59;1139012;-74
2022/04/16 12:09:27;;;;;;;2.80;2.07;;;;;;;12.01;64.67;102307.62;5079666;58;1139200;-74
2022/04/16 12:14:33;;;;;;;2.73;2.30;;;;;;;12.26;62.73;102308.42;5080207;58;1139007;-79
2022/04/16 12:19:42;;;;;;;2.30;1.30;;;;;;;12.07;62.09;102309.09;5080144;58;1139056;-74
2022/04/16 12:24:48;;;;;;;4.20;2.03;;;;;;;11.87;62.60;102308.84;5080274;58;1139278;-77
2022/04/16 12:29:56;;;;;;;2.30;1.95;;;;;;;12.09;63.40;102307.18;5079946;58;1139034;-77
2022/04/16 12:35:02;;;;;;;5.90;3.40;;;;;;;12.44;62.63;102302.55;5080170;58;1139181;-74
2022/04/16 12:40:10;;;;;;;2.27;1.40;;;;;;;12.77;61.88;102295.31;5080155;58;1139036;-76
2022/04/16 12:45:16;;;;;;;1.63;1.53;;;;;;;12.96;62.45;102295.09;5079582;57;1139006;-78
2022/04/16 12:50:22;;;;;;;7.43;2.53;;;;;;;13.22;62.92;102283.77;5092117;57;1139011;-79
2022/04/16 12:55:29;;;;;;;8.03;1.80;;;;;;;13.21;60.01;102286.52;5131654;57;1139253;-78
2022/04/16 13:00:35;;;;;;;1.97;1.70;;;;;;;13.25;61.17;102278.28;5131721;57;1139013;-74
2022/04/16 13:05:41;;;;;;;2.63;1.87;;;;;;;13.37;58.60;102270.02;5131565;56;1139070;-82
2022/04/16 13:10:47;;;;;;;2.60;1.47;;;;;;;13.41;52.12;102256.08;5131652;57;1139045;-77
2022/04/16 13:15:53;;;;;;;3.07;2.23;;;;;;;13.09;57.16;102268.64;5067922;58;1138927;-75
2022/04/16 13:21:00;;;;;;;3.20;2.23;;;;;;;13.10;59.89;102265.04;5131327;57;1139009;-77
2022/04/16 13:26:05;;;;;;;6.37;1.37;;;;;;;13.36;60.47;102257.21;5131677;57;1139087;-80
2022/04/16 13:31:11;;;;;;;7.13;1.93;;;;;;;13.42;57.08;102255.98;5131620;57;1139153;-78
2022/04/16 13:36:17;;;;;;;2.47;1.30;;;;;;;13.21;57.98;102251.51;5131581;57;1139028;-79
2022/04/16 13:41:41;;;;;;;6.27;2.17;;;;;;;13.35;57.71;102244.87;5068085;58;1138999;-77
2022/04/16 13:46:47;;;;;;;5.07;3.70;;;;;;;13.48;57.31;102240.97;5152392;56;1136895;-76
2022/04/16 13:51:52;;;;;;;7.07;2.33;;;;;;;13.42;57.76;102247.16;5151592;57;1137154;-77
2022/04/16 13:56:58;;;;;;;5.03;2.00;;;;;;;13.38;57.98;102240.70;5217291;56;1136968;-76
2022/04/16 14:02:06;;;;;;;2.30;2.10;;;;;;;13.27;56.34;102248.48;5193775;56;1137177;-73
2022/04/16 14:07:12;;;;;;;8.43;3.20;;;;;;;13.29;57.89;102243.08;5143780;57;1137055;-77
2022/04/16 14:12:17;;;;;;;1.23;1.13;;;;;;;13.46;57.50;102238.02;5201412;56;1137088;-75
2022/04/16 14:17:23;;;;;;;3.53;1.73;;;;;;;13.52;53.74;102225.22;5217362;56;1136903;-80
2022/04/16 14:22:30;;;;;;;1.80;1.00;;;;;;;13.43;56.18;102228.94;5217122;56;1136938;-76
2022/04/16 14:27:36;;;;;;;2.87;1.60;;;;;;;13.58;56.97;102221.33;5160877;56;1136934;-76
2022/04/16 14:32:41;;;;;;;1.87;1.40;;;;;;;13.61;55.55;102221.97;4982993;59;1136934;-82
2022/04/16 14:37:47;;;;;;;7.00;3.50;;;;;;;13.60;56.14;102222.91;5077667;57;1137008;-81
2022/04/16 14:42:54;;;;;;;4.83;3.20;;;;;;;13.47;55.52;102218.00;5159114;56;1136907;-78
2022/04/16 14:48:02;;;;;;;11.67;4.43;;;;;;;13.47;55.52;102218.00;5174200;56;1136809;-72
2022/04/16 14:53:07;;;;;;;20.70;11.27;;;;;;;13.53;53.50;102223.41;5176935;56;1139207;-75
2022/04/16 14:58:13;;;;;;;7.17;5.27;;;;;;;13.52;53.50;102226.55;5075693;58;1139065;-77
2022/04/16 15:03:18;;;;;;;14.73;4.37;;;;;;;13.54;52.67;102222.47;5155913;57;1134863;-77
2022/04/16 15:08:26;;;;;;;8.53;5.17;;;;;;;13.64;53.71;102217.79;5182414;56;1140982;-81
2022/04/16 15:13:32;;;;;;;6.87;3.77;;;;;;;13.67;51.94;102221.59;5151320;57;1138841;-77
2022/04/16 15:18:38;;;;;;;5.37;2.73;;;;;;;13.65;52.16;102218.64;5160672;56;1138905;-83
2022/04/16 15:23:43;;;;;;;11.43;4.67;;;;;;;13.69;53.07;102214.38;5246333;56;1138988;-81
2022/04/16 15:28:50;;;;;;;8.20;4.10;;;;;;;13.81;52.75;102222.03;5247038;56;1141167;-79
2022/04/16 15:34:00;;;;;;;9.10;4.62;;;;;;;13.78;51.89;102206.27;5246829;56;1139057;-78
2022/04/16 15:39:06;;;;;;;8.73;4.60;;;;;;;13.75;51.26;102205.64;5246925;56;1138987;-78
2022/04/16 15:44:12;;;;;;;8.95;5.05;;;;;;;13.70;50.94;102205.45;5239895;56;1139223;-74
2022/04/16 15:49:18;;;;;;;5.00;2.30;;;;;;;13.72;51.42;102208.87;5236014;56;1139253;-74
2022/04/16 15:54:24;;;;;;;5.73;4.07;;;;;;;13.68;51.11;102195.86;5208368;56;1138937;-75
2022/04/16 15:59:29;;;;;;;5.97;3.77;;;;;;;13.65;51.30;102206.20;5197150;56;1139222;-76
2022/04/16 16:09:58;;;;;;;5.83;3.22;;;;;;;13.67;52.02;102193.67;5191787;56;1138998;-74
2022/04/16 16:15:06;;;;;;;4.77;1.73;;;;;;;13.58;50.14;102196.93;5186875;56;1138965;-77
2022/04/16 16:20:12;;;;;;;3.67;2.20;;;;;;;13.46;47.95;102202.14;5184996;56;1138989;-75
2022/04/16 16:25:19;;;;;;;9.43;4.73;;;;;;;13.23;48.58;102204.45;5148486;56;1139003;-73
2022/04/16 16:30:26;;;;;;;12.93;4.93;;;;;;;13.08;49.27;102199.19;5196062;56;1139009;-76
2022/04/16 16:35:32;;;;;;;17.93;6.47;;;;;;;13.12;49.88;102195.41;5145918;56;1141620;-74
2022/04/16 16:40:38;;;;;;;11.63;6.87;;;;;;;13.13;51.39;102195.31;5137290;56;1141110;-75
2022/04/16 16:45:44;;;;;;;4.30;3.37;;;;;;;13.17;50.52;102196.84;5161050;56;1141067;-76
2022/04/16 16:50:50;;;;;;;5.83;3.00;;;;;;;13.12;50.74;102198.06;5187678;56;1138985;-75
2022/04/16 16:55:55;;;;;;;15.47;6.53;;;;;;;13.02;50.42;102201.27;5210750;56;1139011;-77
2022/04/16 17:01:02;;;;;;;23.57;7.70;;;;;;;12.93;51.52;102196.52;5110434;57;1141136;-73
2022/04/16 17:06:07;;;;;;;6.63;4.00;;;;;;;12.90;51.92;102197.17;5121512;57;1140971;-71
2022/04/16 17:11:13;;;;;;;10.43;5.47;;;;;;;12.81;51.45;102193.77;5108102;57;1139238;-74
2022/04/16 17:21:42;;;;;;;14.60;8.18;;;;;;;12.55;52.06;102199.28;5239685;56;1141063;-75
2022/04/16 17:26:48;;;;;;;13.93;6.63;;;;;;;12.37;52.48;102208.34;5228815;56;1141083;-75
2022/04/16 17:31:55;;;;;;;30.25;11.80;;;;;;;12.18;51.72;102205.89;5234254;56;1141181;-74
2022/04/16 17:37:00;;;;;;;15.23;9.60;;;;;;;11.97;52.19;102221.22;5230297;56;1143154;-75
2022/04/16 17:42:15;;;;;;;19.10;8.63;;;;;;;11.82;52.38;102225.58;5231387;56;1141114;-75
2022/04/16 17:47:21;;;;;;;26.20;7.20;;;;;;;11.69;52.31;102227.64;5227662;56;1138985;-74
2022/04/16 17:52:27;;;;;;;27.05;10.45;;;;;;;11.46;53.25;102232.85;5235527;56;1138981;-75
2022/04/16 17:57:32;;;;;;;19.45;9.53;;;;;;;11.40;53.91;102235.38;5240810;56;1141086;-76
2022/04/16 18:02:38;;;;;;;26.17;8.53;;;;;;;11.27;54.01;102233.00;5235115;56;1139204;-75
2022/04/16 18:07:44;;;;;;;18.57;8.93;;;;;;;11.11;54.42;102246.67;5227204;56;1139077;-73
2022/04/16 18:12:50;;;;;;;14.97;7.30;;;;;;;11.01;54.97;102256.00;5225354;56;1139154;-75
2022/04/16 18:17:58;;;;;;;27.67;16.73;;;;;;;10.89;55.28;102253.52;5156177;57;1138997;-72
2022/04/16 18:23:04;;;;;;;36.13;15.83;;;;;;;10.81;55.76;102257.91;5189433;56;1141053;-74
2022/04/16 18:28:10;;;;;;;20.40;12.43;;;;;;;10.69;55.93;102266.94;5179314;56;1141089;-72
2022/04/16 18:33:16;;;;;;;52.37;18.27;;;;;;;10.58;56.10;102272.27;5232341;56;1141294;-73
2022/04/16 18:38:22;;;;;;;26.43;10.30;;;;;;;10.55;56.58;102274.21;5160467;56;1141259;-75
2022/04/16 18:43:28;;;;;;;23.23;11.27;;;;;;;10.43;56.82;102280.97;5237590;56;1141063;-72
2022/04/16 18:48:34;;;;;;;27.07;11.60;;;;;;;10.32;57.40;102285.93;5227601;56;1141072;-74
2022/04/16 18:53:41;;;;;;;28.77;12.80;;;;;;;10.18;57.36;102283.95;5003215;58;1140982;-75
2022/04/16 18:58:47;;;;;;;22.97;10.60;;;;;;;10.03;57.64;102293.90;5137066;56;1141360;-75
2022/04/16 19:09:16;;;;;;;41.37;12.53;;;;;;;9.77;58.16;102303.52;5068266;57;1136858;-73
2022/04/16 19:14:22;;;;;;;55.80;20.07;;;;;;;9.68;58.65;102306.55;5151469;57;1138933;-74
2022/04/16 19:19:28;;;;;;;50.27;23.33;;;;;;;9.72;59.15;102310.78;5151261;57;1139167;-73
2022/04/16 19:24:34;;;;;;;89.90;39.15;;;;;;;9.75;59.28;102314.14;5215592;56;1138976;-70
2022/04/16 19:29:41;;;;;;;94.30;44.30;;;;;;;9.66;59.26;102307.08;5216886;56;1138984;-68
2022/04/16 19:34:47;;;;;;;103.37;46.53;;;;;;;9.70;59.45;102306.88;5216720;56;1138985;-67
2022/04/16 19:39:53;;;;;;;155.10;72.20;;;;;;;9.70;59.54;102319.23;5135742;57;1141102;-69
2022/04/16 19:44:58;;;;;;;194.60;87.20;;;;;;;9.66;59.66;102318.51;5150234;57;1141307;-68
2022/04/16 19:50:10;;;;;;;135.70;58.37;;;;;;;9.53;59.80;102318.20;5205871;56;1141060;-68
2022/04/16 19:55:12;;;;;;;74.77;36.23;;;;;;;9.40;60.04;102322.78;5231412;56;1140946;-68
2022/04/16 20:00:17;;;;;;;72.03;34.53;;;;;;;9.33;60.35;102322.64;5249066;56;1138942;-71
2022/04/16 20:05:23;;;;;;;40.07;17.93;;;;;;;9.22;60.38;102331.49;5245828;56;1138983;-67
2022/04/16 20:10:46;;;;;;;36.13;18.50;;;;;;;8.99;60.27;102335.13;5251350;56;1138987;-70
2022/04/16 20:15:54;;;;;;;46.67;22.00;;;;;;;8.85;60.51;102344.94;5244406;56;1139095;-68
2022/04/16 20:21:02;;;;;;;49.50;20.87;;;;;;;8.90;61.23;102351.33;5181405;56;1139133;-68
2022/04/16 20:26:08;;;;;;;46.50;20.55;;;;;;;8.92;61.50;102359.58;5164341;57;1139197;-69
2022/04/16 20:31:14;;;;;;;50.03;22.50;;;;;;;8.90;61.55;102350.86;5164557;57;1139122;-71
2022/04/16 20:36:20;;;;;;;61.83;27.27;;;;;;;8.92;61.96;102353.44;5165289;57;1138998;-68
2022/04/16 20:46:49;;;;;;;62.33;29.87;;;;;;;8.83;62.15;102346.78;5187299;56;1139392;-68
2022/04/16 20:57:19;;;;;;;66.47;31.77;;;;;;;8.73;62.73;102357.28;5234273;56;1138985;-68
2022/04/16 21:02:25;;;;;;;101.10;44.60;;;;;;;8.59;62.53;102358.30;5233641;56;1139268;-69
2022/04/16 21:07:30;;;;;;;179.90;79.53;;;;;;;8.40;62.52;102352.44;5161107;56;1141081;-68
2022/04/16 21:12:37;;;;;;;80.27;33.47;;;;;;;8.22;62.57;102364.14;5246546;56;1141058;-69
2022/04/16 21:17:43;;;;;;;54.50;22.27;;;;;;;7.99;62.99;102363.23;5249547;56;1138999;-68
2022/04/16 21:22:53;;;;;;;39.10;16.47;;;;;;;7.87;63.68;102357.10;5250106;56;1138964;-70
2022/04/16 21:27:56;;;;;;;38.77;13.97;;;;;;;7.68;64.09;102359.54;5250218;56;1139075;-69
2022/04/16 21:33:02;;;;;;;41.25;15.53;;;;;;;7.56;64.44;102370.97;5248289;56;1136912;-68
2022/04/16 21:38:11;;;;;;;60.70;17.77;;;;;;;7.47;64.95;102372.63;5248910;56;1136894;-70
2022/04/16 21:43:19;;;;;;;35.17;13.93;;;;;;;7.34;65.46;102367.77;5234173;56;1136842;-69
2022/04/16 21:48:25;;;;;;;32.60;12.20;;;;;;;7.30;65.76;102364.86;5216340;56;1136983;-68
2022/04/16 21:53:30;;;;;;;32.10;13.70;;;;;;;7.27;66.04;102371.54;5223495;56;1136826;-69
2022/04/16 21:58:36;;;;;;;43.70;15.90;;;;;;;7.27;66.56;102371.54;5178189;56;1136941;-71
2022/04/16 22:03:43;;;;;;;35.37;15.50;;;;;;;7.21;66.45;102380.09;5162493;56;1136939;-68
2022/04/16 22:08:48;;;;;;;76.07;29.17;;;;;;;7.12;66.87;102382.59;5082254;57;1136935;-70
2022/04/16 22:13:57;;;;;;;77.37;31.97;;;;;;;7.01;66.80;102380.77;5198538;56;1136919;-68
2022/04/16 22:19:03;;;;;;;64.20;25.93;;;;;;;6.99;67.33;102381.27;5186261;57;1137042;-68
2022/04/16 22:24:09;;;;;;;70.47;27.87;;;;;;;6.91;67.18;102380.65;5186589;57;1136864;-71
2022/04/16 22:29:15;;;;;;;52.37;24.57;;;;;;;6.77;67.56;102375.84;5186218;56;1136955;-68
2022/04/16 22:34:21;;;;;;;78.27;32.60;;;;;;;6.67;67.71;102372.66;5186580;56;1136961;-70
2022/04/16 22:44:51;;;;;;;104.50;39.45;;;;;;;6.47;68.23;102363.20;5186498;57;1134872;-68
2022/04/16 22:49:56;;;;;;;98.60;36.77;;;;;;;6.41;68.35;102362.56;5139950;57;1141309;-72
2022/04/16 22:55:02;;;;;;;96.73;37.83;;;;;;;6.35;68.73;102367.53;5139112;56;1139039;-71
2022/04/16 23:00:09;;;;;;;108.53;36.13;;;;;;;6.30;68.99;102365.04;5080113;58;1138820;-71
2022/04/16 23:05:15;;;;;;;92.10;31.53;;;;;;;6.00;68.19;102368.58;5080003;58;1141149;-69
2022/04/16 23:10:21;;;;;;;111.20;33.00;;;;;;;5.84;69.02;102361.55;5079675;58;1139070;-68
2022/04/16 23:20:53;;;;;;;80.57;32.00;;;;;;;5.41;69.16;102364.96;5097666;57;1139240;-70
2022/04/16 23:26:01;;;;;;;55.33;22.80;;;;;;;5.18;69.45;102362.95;5157826;57;1139043;-69
2022/04/16 23:31:07;;;;;;;56.63;23.23;;;;;;;4.84;69.46;102368.17;5163705;57;1139261;-70
2022/04/16 23:36:15;;;;;;;47.43;19.90;;;;;;;4.74;70.38;102362.72;5163856;57;1138985;-67
2022/04/16 23:41:21;;;;;;;35.50;15.72;;;;;;;4.67;70.55;102357.23;5242415;56;1139011;-69
2022/04/16 23:51:51;;;;;;;42.85;14.45;;;;;;;3.80;71.77;102363.08;5156424;57;1139024;-70
2022/04/16 23:56:57;;;;;;;45.30;16.60;;;;;;;3.58;72.55;102356.53;4991022;59;1139087;-68
